Airfield :
LOGIN :

Register | Disclaimer

   EN    FR    IT 

 










Legend :    VFR   Marginal VFR   IFR   Intensive IFR   Very Intensive IFR
Visi :
Ceiling :
>= 8 km
>= 3000ft
5 to 8 km
1000 to 3000 ft
1500m to 5 km
500 to 1000 ft
800 to 1500m
200 to 500 ft
< 800m
< 200 ft
Symbols :   Thunderstorms  Fog  Heavy snow  Heavy precipitations  Wind > 20 kt
SIGMETs :     Misc.  Thunderstorms  Icing  Turbulence  Mountain Waves  Volcanic Ashes







- Airport Elevation : 1213 ft
- IATA code : SCQ


LEST - Santiago de Compostela

CURRENT METAR :
  • 200700Z 04006KT 350V080 9000 VCFG BKN006 BKN012 OVC019 14/13 Q1017 NOSIG

EXPIRED METARs :
  • 200630Z 03005KT 360V060 7000 VCFG BKN005 OVC012 14/13 Q1017 NOSIG
  • 200600Z 03004KT 350V060 7000 VCFG BKN004 OVC014 14/13 Q1017 NOSIG
  • 200530Z 04004KT 010V080 7000 VCFG FEW005 SCT014 BKN020 14/13 Q1017 NOSIG
  • 200500Z 04003KT 340V100 8000 FEW005 SCT009 OVC036 14/13 Q1017 NOSIG
  • 200430Z 04003KT 360V060 8000 FEW006 BKN010 OVC036 14/13 Q1017 NOSIG
  • 200400Z VRB02KT 8000 BKN005 BKN010 OVC017 14/13 Q1017 NOSIG

TAF TAF LEST
Valid from the 20 at 06:00 until the 21 at 06:00 UTC


200500Z 2006/2106 01009KT 8000 SCT010 BKN020 BKN035 TX18/2015Z TN11/2105Z
TEMPO 2006/2010 3000 BR BKN010
PROB40
TEMPO 2006/2009 1500 DZ BCFG BKN005
PROB40
TEMPO 2006/2007 0800 BCFG BKN002
PROB30
TEMPO 2012/2018 3000 RA SHRA BKN014 SCT030TCU
PROB40
TEMPO 2018/2106 1500 BCFG BKN010
No reported NOTAMs for that airfield.



MET'MAP, your aeronautical weather chart ! - Copyright ORBIFLY December 2007 - Disclaimer

ORBIFLY MET'MAP TEAM :

Programming & Development : Alexandra Zaïnal
Concept & Development : Baudouin d'Aumeries
Co-Development & Prog : Marc-Olivier Méhu
Technical & hardware support : Manuel Goepfert

Contact : metmap@orbifly.com




SOURCES & CREDITS :

   NOAA